Time;durP1;ratioP1;P1;durP2;ratioP2;P2;SDS_P1;SDS_P2;PMS_P1;PMS_P2;Temp;Humidity;BMP_temperature;BMP_pressure;BME280_temperature;BME280_humidity;BME280_pressure;Samples;Min_cycle;Max_cycle;Signal;HPM_P1;HPM_P2
2021/05/05 00:00:45;;;;;;;;;;;;;;;-142.75;66.10;77056.53;5045081;28;19954;-79
2021/05/05 00:03:10;;;;;;;;;;;;;;;-142.75;66.07;77044.72;5052517;28;19987;-79
2021/05/05 00:05:35;;;;;;;;;;;;;;;-142.75;66.15;77048.66;5045951;28;19932;-80
2021/05/05 00:08:00;;;;;;;;;;;;;;;-142.75;66.34;77044.72;5050919;28;19925;-80
2021/05/05 00:10:26;;;;;;;;;;;;;;;-142.75;66.40;77042.75;5042634;28;19917;-81
2021/05/05 00:12:51;;;;;;;;;;;;;;;-142.75;66.24;77032.91;5048543;28;19917;-79
2021/05/05 00:15:18;;;;;;;;;;;;;;;-142.75;66.03;77034.88;5048920;28;19917;-79
2021/05/05 00:17:43;;;;;;;;;;;;;;;-142.75;65.50;77027.00;5051800;28;19929;-80
2021/05/05 00:20:09;;;;;;;;;;;;;;;-142.75;65.66;77030.94;5048798;28;19984;-79
2021/05/05 00:22:35;;;;;;;;;;;;;;;-142.75;66.00;77027.00;5047813;28;20440;-81
2021/05/05 00:25:00;;;;;;;;;;;;;;;-142.75;65.86;77025.03;5047560;28;19927;-80
2021/05/05 00:27:25;;;;;;;;;;;;;;;-142.75;65.40;77021.09;5049069;28;19917;-81
2021/05/05 00:29:51;;;;;;;;;;;;;;;-142.75;65.69;77015.19;5050814;28;20067;-79
2021/05/05 00:32:16;;;;;;;;;;;;;;;-142.75;65.41;77011.25;5044290;28;19916;-80
2021/05/05 00:34:41;;;;;;;;;;;;;;;-142.75;65.03;76999.44;5048052;28;19924;-82
2021/05/05 00:37:06;;;;;;;;;;;;;;;-142.75;64.78;76989.59;5041944;28;20020;-80
2021/05/05 00:39:31;;;;;;;;;;;;;;;-142.75;64.35;76989.59;5043231;28;20019;-83
2021/05/05 00:41:57;;;;;;;;;;;;;;;-142.75;64.94;76985.66;5044613;28;20462;-81
2021/05/05 00:44:23;;;;;;;;;;;;;;;-142.75;64.45;76987.63;5040501;28;20291;-80
2021/05/05 00:46:48;;;;;;;;;;;;;;;-142.75;64.10;76983.69;5047689;28;19917;-80
2021/05/05 00:49:14;;;;;;;;;;;;;;;-142.75;64.61;76991.56;5048535;28;20282;-78
2021/05/05 00:51:39;;;;;;;;;;;;;;;-142.75;64.33;76985.66;5050186;28;19928;-79
2021/05/05 00:54:04;;;;;;;;;;;;;;;-142.75;63.81;76995.50;5050522;28;20055;-82
2021/05/05 00:56:30;;;;;;;;;;;;;;;-142.75;64.39;76995.50;5052036;28;19921;-81
2021/05/05 00:58:55;;;;;;;;;;;;;;;-142.75;64.20;76999.44;5042091;28;19984;-81
2021/05/05 01:01:20;;;;;;;;;;;;;;;-142.75;63.83;77011.25;5044194;28;19932;-80
2021/05/05 01:03:45;;;;;;;;;;;;;;;-142.75;64.19;77023.06;5053059;28;19917;-80
2021/05/05 01:06:11;;;;;;;;;;;;;;;-142.75;64.62;77032.91;5050424;28;19912;-78
2021/05/05 01:08:36;;;;;;;;;;;;;;;-142.75;65.37;77040.78;5047938;28;19956;-80
2021/05/05 01:11:02;;;;;;;;;;;;;;;-142.75;65.71;77044.72;5047032;28;19917;-80
2021/05/05 01:13:28;;;;;;;;;;;;;;;-142.75;65.85;77038.81;5048381;28;19917;-79
2021/05/05 01:15:53;;;;;;;;;;;;;;;-142.75;66.02;77034.88;5054008;28;19917;-80
2021/05/05 01:18:18;;;;;;;;;;;;;;;-142.75;66.37;77034.88;5052817;28;20302;-80
2021/05/05 01:20:43;;;;;;;;;;;;;;;-142.75;65.73;77034.88;5049727;28;19928;-79
2021/05/05 01:23:09;;;;;;;;;;;;;;;-142.75;65.49;77030.94;5051434;28;19967;-80
2021/05/05 01:25:34;;;;;;;;;;;;;;;-142.75;65.57;77034.88;5052191;28;20306;-80
2021/05/05 01:28:00;;;;;;;;;;;;;;;-142.75;65.59;77036.84;5052055;28;19921;-79
2021/05/05 01:30:25;;;;;;;;;;;;;;;-142.75;65.03;77032.91;5043719;28;20403;-82
2021/05/05 01:32:51;;;;;;;;;;;;;;;-142.75;65.23;77034.88;5049622;28;19920;-79
2021/05/05 01:35:18;;;;;;;;;;;;;;;-142.75;65.06;77030.94;5052664;28;19924;-81
2021/05/05 01:37:43;;;;;;;;;;;;;;;-142.75;64.50;77030.94;5046823;28;19929;-80
2021/05/05 01:40:15;;;;;;;;;;;;;;;-142.75;64.84;77030.94;5047610;28;20294;-83
2021/05/05 01:42:41;;;;;;;;;;;;;;;-142.75;64.69;77038.81;5048728;28;19917;-82
2021/05/05 01:45:06;;;;;;;;;;;;;;;-142.75;64.63;77034.88;5046224;28;19917;-82
2021/05/05 01:47:32;;;;;;;;;;;;;;;-142.75;65.09;77048.66;5051332;28;20406;-80
2021/05/05 01:49:57;;;;;;;;;;;;;;;-142.75;65.00;77050.63;5052239;28;19932;-82
2021/05/05 01:52:22;;;;;;;;;;;;;;;-142.75;64.60;77052.59;5051689;28;19917;-80
2021/05/05 01:54:47;;;;;;;;;;;;;;;-142.75;64.60;77054.56;5049896;28;20375;-79
2021/05/05 01:57:25;;;;;;;;;;;;;;;-142.75;64.24;77048.66;5048415;28;20452;-80
2021/05/05 01:59:50;;;;;;;;;;;;;;;-142.75;64.42;77054.56;5051650;28;19924;-81
2021/05/05 02:02:16;;;;;;;;;;;;;;;-142.75;64.19;77046.69;5047362;28;19916;-80
2021/05/05 02:04:41;;;;;;;;;;;;;;;-142.75;64.49;77056.53;5047427;28;20397;-79
2021/05/05 02:07:06;;;;;;;;;;;;;;;-142.75;64.39;77052.59;5050282;28;19916;-81
2021/05/05 02:09:31;;;;;;;;;;;;;;;-142.75;64.24;77052.59;5041579;28;19940;-82
2021/05/05 02:11:57;;;;;;;;;;;;;;;-142.75;64.41;77048.66;5048249;28;19924;-79
2021/05/05 02:14:22;;;;;;;;;;;;;;;-142.75;64.15;77046.69;5045036;28;19971;-82
2021/05/05 02:16:52;;;;;;;;;;;;;;;-142.75;63.96;77042.75;5044617;28;20367;-80
2021/05/05 02:19:17;;;;;;;;;;;;;;;-142.75;63.77;77028.97;5047991;28;20298;-80
2021/05/05 02:21:43;;;;;;;;;;;;;;;-142.75;63.76;77027.00;5052137;28;19917;-81
2021/05/05 02:24:08;;;;;;;;;;;;;;;-142.75;63.71;77036.84;5053023;28;19917;-79
2021/05/05 02:26:33;;;;;;;;;;;;;;;-142.75;63.61;77034.88;5047944;28;20401;-81
2021/05/05 02:28:58;;;;;;;;;;;;;;;-142.75;63.82;77038.81;5049320;28;19917;-80
2021/05/05 02:31:24;;;;;;;;;;;;;;;-142.75;63.92;77038.81;5048053;28;19924;-79
2021/05/05 02:33:50;;;;;;;;;;;;;;;-142.75;63.91;77040.78;5055027;28;19921;-81
2021/05/05 02:36:15;;;;;;;;;;;;;;;-142.75;63.79;77028.97;5043024;28;19979;-81
2021/05/05 02:38:40;;;;;;;;;;;;;;;-142.75;63.59;77038.81;5049382;28;19967;-81
2021/05/05 02:41:06;;;;;;;;;;;;;;;-142.75;63.66;77038.81;5049657;28;19905;-81
2021/05/05 02:43:31;;;;;;;;;;;;;;;-142.75;63.08;77042.75;5052093;28;19917;-81
2021/05/05 02:45:56;;;;;;;;;;;;;;;-142.75;62.54;77048.66;5046997;28;19917;-84
2021/05/05 02:48:22;;;;;;;;;;;;;;;-142.75;63.26;77046.69;5043581;28;19917;-81
2021/05/05 02:50:47;;;;;;;;;;;;;;;-142.75;62.18;77050.63;5044125;28;20387;-80
2021/05/05 02:53:12;;;;;;;;;;;;;;;-142.75;60.75;77054.56;5048997;28;19923;-80
2021/05/05 02:55:37;;;;;;;;;;;;;;;-142.75;60.78;77062.44;5050380;28;19917;-79
2021/05/05 02:58:02;;;;;;;;;;;;;;;-142.75;59.75;77066.38;5053136;28;20020;-81
2021/05/05 03:00:27;;;;;;;;;;;;;;;-142.75;59.63;77066.38;5049352;28;19951;-78
2021/05/05 03:02:53;;;;;;;;;;;;;;;-142.75;59.73;77070.31;5043536;28;20000;-80
2021/05/05 03:05:18;;;;;;;;;;;;;;;-142.75;60.00;77078.19;5045220;28;19984;-80
2021/05/05 03:07:43;;;;;;;;;;;;;;;-142.75;59.97;77078.19;5044963;28;19920;-82
2021/05/05 03:10:09;;;;;;;;;;;;;;;-142.75;61.62;77090.00;5046278;28;19917;-80
2021/05/05 03:12:35;;;;;;;;;;;;;;;-142.75;62.48;77101.81;5051606;28;19917;-82
2021/05/05 03:15:00;;;;;;;;;;;;;;;-142.75;62.67;77109.69;5046174;28;19928;-80
2021/05/05 03:17:25;;;;;;;;;;;;;;;-142.75;63.45;77117.56;5043524;28;19921;-79
2021/05/05 03:19:51;;;;;;;;;;;;;;;-142.75;63.64;77125.44;5048137;28;19959;-79
2021/05/05 03:22:17;;;;;;;;;;;;;;;-142.75;63.76;77143.16;5047646;28;19940;-79
2021/05/05 03:24:42;;;;;;;;;;;;;;;-142.75;63.96;77145.13;5046429;28;20318;-79
2021/05/05 03:27:07;;;;;;;;;;;;;;;-142.75;64.29;77151.03;5040243;28;19917;-80
2021/05/05 03:29:32;;;;;;;;;;;;;;;-142.75;64.84;77147.09;5048924;28;20461;-78
2021/05/05 03:31:58;;;;;;;;;;;;;;;-142.75;65.18;77162.84;5052607;28;19970;-80
2021/05/05 03:34:23;;;;;;;;;;;;;;;-142.75;65.58;77172.69;5055667;28;19965;-79
2021/05/05 03:36:49;;;;;;;;;;;;;;;-142.75;65.68;77176.63;5050641;28;19927;-80
2021/05/05 03:39:14;;;;;;;;;;;;;;;-142.75;65.92;77180.56;5047647;28;20367;-80
2021/05/05 03:41:39;;;;;;;;;;;;;;;-142.75;66.09;77186.47;5045587;28;19924;-80
2021/05/05 03:44:05;;;;;;;;;;;;;;;-142.75;66.05;77176.63;5052284;28;20440;-81
2021/05/05 03:46:31;;;;;;;;;;;;;;;-142.75;66.61;77196.31;5043104;28;19935;-85
2021/05/05 03:48:56;;;;;;;;;;;;;;;-142.75;66.33;77217.97;5053468;28;19921;-79
2021/05/05 03:51:21;;;;;;;;;;;;;;;-142.75;66.56;77231.75;5053758;28;19963;-78
2021/05/05 03:53:46;;;;;;;;;;;;;;;-142.75;66.32;77237.66;5052870;28;20298;-80
2021/05/05 03:56:12;;;;;;;;;;;;;;;-142.75;66.89;77223.88;5056401;28;19923;-78
2021/05/05 03:58:37;;;;;;;;;;;;;;;-142.75;66.51;77225.84;5052565;28;19927;-81
2021/05/05 04:01:03;;;;;;;;;;;;;;;-142.75;66.70;77219.94;5048691;28;19939;-81
2021/05/05 04:03:28;;;;;;;;;;;;;;;-142.75;66.97;77221.91;5051607;28;19917;-78
2021/05/05 04:05:53;;;;;;;;;;;;;;;-142.75;66.95;77219.94;5051018;28;19993;-80
2021/05/05 04:08:18;;;;;;;;;;;;;;;-142.75;66.53;77223.88;5097973;23;19924;-78
2021/05/05 04:10:43;;;;;;;;;;;;;;;-142.75;66.11;77217.97;5072077;28;19949;-83
2021/05/05 04:13:09;;;;;;;;;;;;;;;-142.75;65.48;77223.88;5076610;28;19916;-80
2021/05/05 04:15:34;;;;;;;;;;;;;;;-142.75;65.83;77216.00;5092140;28;20018;-80
2021/05/05 04:17:59;;;;;;;;;;;;;;;-142.75;65.77;77217.97;5069329;28;20275;-79
2021/05/05 04:20:24;;;;;;;;;;;;;;;-142.75;65.68;77223.88;5070757;28;19956;-80
2021/05/05 04:22:50;;;;;;;;;;;;;;;-142.75;65.37;77225.84;5070899;28;19920;-82
2021/05/05 04:25:16;;;;;;;;;;;;;;;-142.75;66.00;77243.56;5067961;28;19924;-83
2021/05/05 04:27:42;;;;;;;;;;;;;;;-142.75;66.20;77249.47;5066511;28;19916;-83
2021/05/05 04:30:08;;;;;;;;;;;;;;;-142.75;66.76;77251.44;5066948;28;20381;-82
2021/05/05 04:32:34;;;;;;;;;;;;;;;-142.75;66.70;77251.44;5089220;28;19958;-84
2021/05/05 04:34:59;;;;;;;;;;;;;;;-142.75;67.32;77261.28;5068244;28;20393;-81
2021/05/05 04:37:24;;;;;;;;;;;;;;;-142.75;66.66;77282.94;5064572;28;19924;-80
2021/05/05 04:39:49;;;;;;;;;;;;;;;-142.75;67.35;77300.66;5087951;28;19916;-81
2021/05/05 04:42:14;;;;;;;;;;;;;;;-142.75;67.02;77318.38;5070615;28;19966;-81
2021/05/05 04:44:40;;;;;;;;;;;;;;;-142.75;67.28;77322.31;5087730;28;19982;-78
2021/05/05 04:47:05;;;;;;;;;;;;;;;-142.75;67.25;77316.41;5067025;28;20485;-82
2021/05/05 04:49:30;;;;;;;;;;;;;;;-142.75;67.32;77330.19;5072999;28;20381;-78
2021/05/05 04:51:55;;;;;;;;;;;;;;;-142.75;67.46;77322.31;5082790;28;19916;-80
2021/05/05 04:54:21;;;;;;;;;;;;;;;-142.75;67.34;77322.31;5064478;28;19916;-80
2021/05/05 04:56:46;;;;;;;;;;;;;;;-142.75;67.29;77312.47;5065928;28;20377;-83
2021/05/05 04:59:11;;;;;;;;;;;;;;;-142.75;67.47;77306.56;5067309;28;19951;-81
2021/05/05 05:01:36;;;;;;;;;;;;;;;-142.75;67.54;77306.56;5083650;28;19927;-83
2021/05/05 05:04:02;;;;;;;;;;;;;;;-142.75;67.52;77298.69;5068124;28;19967;-82
2021/05/05 05:06:27;;;;;;;;;;;;;;;-142.75;67.17;77298.69;5087889;28;19941;-79
2021/05/05 05:08:53;;;;;;;;;;;;;;;-142.75;67.18;77284.91;5069097;28;19920;-80
2021/05/05 05:11:18;;;;;;;;;;;;;;;-142.75;67.63;77286.88;5071209;28;19924;-80
2021/05/05 05:13:43;;;;;;;;;;;;;;;-142.75;67.41;77269.16;5074307;28;19938;-78
2021/05/05 05:16:09;;;;;;;;;;;;;;;-142.75;67.83;77263.25;5072622;28;19916;-79
2021/05/05 05:18:34;;;;;;;;;;;;;;;-142.75;67.53;77249.47;5094526;28;19924;-80
2021/05/05 05:21:00;;;;;;;;;;;;;;;-142.75;67.81;77243.56;5094147;28;19919;-80
2021/05/05 05:23:26;;;;;;;;;;;;;;;-142.75;67.48;77229.78;5072748;28;19924;-79
2021/05/05 05:25:51;;;;;;;;;;;;;;;-142.75;67.16;77223.88;5071334;28;19939;-81
2021/05/05 05:28:16;;;;;;;;;;;;;;;-142.75;66.95;77196.31;5074260;28;19926;-81
2021/05/05 05:30:41;;;;;;;;;;;;;;;-142.75;66.98;77174.66;5087352;28;19971;-80
2021/05/05 05:33:07;;;;;;;;;;;;;;;-142.75;65.15;77129.38;5087813;28;20401;-80
2021/05/05 05:35:32;;;;;;;;;;;;;;;-142.75;64.67;77058.50;5067060;28;19917;-81
2021/05/05 05:37:57;;;;;;;;;;;;;;;-142.75;62.93;77015.19;5071599;28;19928;-79
2021/05/05 05:40:22;;;;;;;;;;;;;;;-142.75;61.31;77003.38;5085085;28;19920;-78
2021/05/05 05:42:47;;;;;;;;;;;;;;;-142.75;60.97;76977.78;5067395;28;19916;-80
2021/05/05 05:45:15;;;;;;;;;;;;;;;-142.75;59.67;76954.16;5069756;28;20332;-80
2021/05/05 05:47:40;;;;;;;;;;;;;;;-142.75;58.83;76891.16;5087442;28;19920;-78
2021/05/05 05:50:06;;;;;;;;;;;;;;;-142.75;57.99;76855.72;5069680;28;20289;-82
2021/05/05 05:52:32;;;;;;;;;;;;;;;-142.75;57.10;76845.88;5069558;28;19916;-81
2021/05/05 05:54:57;;;;;;;;;;;;;;;-142.75;57.61;76839.97;5067875;28;19920;-81
2021/05/05 05:57:22;;;;;;;;;;;;;;;-142.75;57.54;76826.19;5070350;28;20306;-80
2021/05/05 05:59:48;;;;;;;;;;;;;;;-142.75;57.27;76790.78;5071170;28;20382;-82
2021/05/05 06:02:13;;;;;;;;;;;;;;;-142.75;57.38;76763.22;5088223;28;19916;-79
2021/05/05 06:04:38;;;;;;;;;;;;;;;-142.75;56.13;76680.53;5069285;28;20277;-80
2021/05/05 06:07:03;;;;;;;;;;;;;;;-142.75;54.05;76647.06;5065247;28;19920;-79
2021/05/05 06:09:28;;;;;;;;;;;;;;;-142.75;54.70;76597.84;5064608;28;19924;-80
2021/05/05 06:11:54;;;;;;;;;;;;;;;-142.75;53.68;76601.78;5091950;28;20289;-78
2021/05/05 06:14:19;;;;;;;;;;;;;;;-142.75;54.06;76708.09;5088319;28;20049;-79
2021/05/05 06:16:45;;;;;;;;;;;;;;;-142.75;55.52;76786.84;5067418;28;19916;-79
2021/05/05 06:19:10;;;;;;;;;;;;;;;-142.75;56.69;76826.19;5064584;28;19974;-79
2021/05/05 06:21:35;;;;;;;;;;;;;;;-142.75;56.63;76916.75;5063631;28;19916;-79
2021/05/05 06:24:00;;;;;;;;;;;;;;;-142.75;58.64;76958.09;5065729;28;19916;-78
2021/05/05 06:26:25;;;;;;;;;;;;;;;-142.75;58.96;76999.44;5070114;28;19955;-79
2021/05/05 06:28:51;;;;;;;;;;;;;;;-142.75;58.72;77054.56;5067165;28;19935;-79
2021/05/05 06:31:16;;;;;;;;;;;;;;;-142.75;60.34;77090.00;5064691;28;19987;-78
2021/05/05 06:33:41;;;;;;;;;;;;;;;-142.75;60.39;77105.75;5069738;28;20468;-78
2021/05/05 06:36:06;;;;;;;;;;;;;;;-142.75;60.66;77174.66;5078457;28;20286;-77
2021/05/05 06:38:32;;;;;;;;;;;;;;;-142.75;61.78;77212.06;5068002;28;19920;-79
2021/05/05 06:40:57;;;;;;;;;;;;;;;-142.75;62.05;77221.91;5064331;28;20027;-75
2021/05/05 06:43:22;;;;;;;;;;;;;;;-142.75;62.38;77243.56;5082274;28;19973;-79
2021/05/05 06:45:48;;;;;;;;;;;;;;;-142.75;63.14;77233.72;5084045;28;20003;-78
2021/05/05 06:48:13;;;;;;;;;;;;;;;-142.75;62.73;77235.69;5066243;28;21876;-79
2021/05/05 06:50:38;;;;;;;;;;;;;;;-142.75;63.24;77204.19;5065563;28;19923;-77
2021/05/05 06:53:03;;;;;;;;;;;;;;;-142.75;63.04;77078.19;5086026;28;20173;-79
2021/05/05 06:55:28;;;;;;;;;;;;;;;-142.75;60.11;77034.88;5085874;28;19916;-79
2021/05/05 06:57:53;;;;;;;;;;;;;;;-142.75;60.68;77082.13;5067570;28;19950;-78
2021/05/05 07:00:19;;;;;;;;;;;;;;;-142.75;61.10;77184.50;5066963;28;19923;-79
2021/05/05 07:02:45;;;;;;;;;;;;;;;-142.75;62.83;77229.78;5081231;28;19928;-79
2021/05/05 07:05:10;;;;;;;;;;;;;;;-142.75;64.25;77253.41;5086534;28;20385;-76
2021/05/05 07:07:35;;;;;;;;;;;;;;;-142.75;63.31;77314.44;5089486;28;19939;-77
2021/05/05 07:10:00;;;;;;;;;;;;;;;-142.75;64.28;77296.72;5086845;28;19917;-77
2021/05/05 07:12:26;;;;;;;;;;;;;;;-142.75;64.53;77310.50;5070720;28;20011;-78
2021/05/05 07:14:51;;;;;;;;;;;;;;;-142.75;64.51;77282.94;5085784;28;19923;-78
2021/05/05 07:17:16;;;;;;;;;;;;;;;-142.75;63.71;77263.25;5069321;28;19942;-77
2021/05/05 07:19:42;;;;;;;;;;;;;;;-142.75;64.21;77212.06;5069667;28;19923;-79
2021/05/05 07:22:07;;;;;;;;;;;;;;;-142.75;62.03;77129.38;5089980;28;19916;-79
2021/05/05 07:24:32;;;;;;;;;;;;;;;-142.75;61.18;77046.69;5085358;28;19923;-79
2021/05/05 07:26:57;;;;;;;;;;;;;;;-142.75;60.14;77021.09;5087296;28;19916;-80
2021/05/05 07:29:22;;;;;;;;;;;;;;;-142.75;60.24;77009.28;5066438;28;19936;-78
2021/05/05 07:31:48;;;;;;;;;;;;;;;-142.75;60.04;77015.19;5069997;28;19916;-78
2021/05/05 07:34:15;;;;;;;;;;;;;;;-142.75;59.97;76944.31;5086939;28;19924;-78
2021/05/05 07:36:44;;;;;;;;;;;;;;;-142.75;57.14;76810.44;5090323;28;20002;-81
2021/05/05 07:39:24;;;;;;;;;;;;;;;-142.75;55.09;76629.34;5068803;28;19923;-77
2021/05/05 07:47:08;;;;;;;;;;;;;;;-142.75;52.77;76613.59;5083504;28;20037;-77
2021/05/05 07:49:42;;;;;;;;;;;;;;;-142.75;55.07;76861.63;5068935;28;19986;-78
2021/05/05 07:52:08;;;;;;;;;;;;;;;-142.75;57.79;76983.69;5085262;28;19925;-80
2021/05/05 07:54:33;;;;;;;;;;;;;;;-142.75;59.81;77103.78;5087066;28;19939;-78
2021/05/05 07:56:58;;;;;;;;;;;;;;;-142.75;60.85;77115.59;5086549;28;19986;-78
2021/05/05 07:59:23;;;;;;;;;;;;;;;-142.75;61.41;77125.44;5068838;28;19920;-77
2021/05/05 08:01:49;;;;;;;;;;;;;;;-142.75;61.21;77074.25;5069312;28;19967;-77
2021/05/05 08:04:14;;;;;;;;;;;;;;;-142.75;57.03;76838.00;5070238;28;19967;-77
2021/05/05 08:06:39;;;;;;;;;;;;;;;-142.75;55.27;76753.38;5070373;28;20306;-79
2021/05/05 08:09:05;;;;;;;;;;;;;;;-142.75;54.82;76715.97;5071895;28;19981;-79
2021/05/05 08:11:30;;;;;;;;;;;;;;;-142.75;55.22;76733.69;5086422;28;19985;-80
2021/05/05 08:13:59;;;;;;;;;;;;;;;-142.75;56.26;76763.22;5083075;28;19923;-77
2021/05/05 08:16:24;;;;;;;;;;;;;;;-142.75;56.38;76786.84;5064412;28;19961;-77
2021/05/05 08:18:49;;;;;;;;;;;;;;;-142.75;54.68;76698.25;5068674;28;20018;-78
2021/05/05 08:21:15;;;;;;;;;;;;;;;-142.75;51.96;76558.47;5085600;28;19916;-79
2021/05/05 08:23:40;;;;;;;;;;;;;;;-142.75;51.52;76603.75;5088199;28;19916;-78
2021/05/05 08:26:06;;;;;;;;;;;;;;;-142.75;51.60;76593.91;5067287;28;19916;-78
2021/05/05 08:28:35;;;;;;;;;;;;;;;-142.75;50.29;76534.84;5063501;28;19995;-77
2021/05/05 08:31:01;;;;;;;;;;;;;;;-142.75;50.83;76568.31;5065748;28;19916;-78
2021/05/05 08:33:26;;;;;;;;;;;;;;;-142.75;49.86;76617.53;5069255;28;19924;-78
2021/05/05 08:35:51;;;;;;;;;;;;;;;-142.75;50.71;76550.59;5067030;28;19916;-78
2021/05/05 08:38:17;;;;;;;;;;;;;;;-142.75;51.43;76597.84;5070830;28;19979;-77
2021/05/05 08:40:43;;;;;;;;;;;;;;;-142.75;51.05;76615.56;5065264;28;19939;-78
2021/05/05 08:43:08;;;;;;;;;;;;;;;-142.75;50.57;76680.53;5084644;28;19923;-77
2021/05/05 08:45:34;;;;;;;;;;;;;;;-142.75;49.82;76668.72;5064496;28;19916;-76
2021/05/05 08:48:01;;;;;;;;;;;;;;;-142.75;50.25;76611.63;5063369;28;19917;-78
2021/05/05 08:50:28;;;;;;;;;;;;;;;-142.75;54.44;76916.75;5085551;28;19954;-77
2021/05/05 08:52:54;;;;;;;;;;;;;;;-142.75;57.60;77013.22;5083683;28;19916;-78
2021/05/05 08:55:20;;;;;;;;;;;;;;;-142.75;57.76;77060.47;5085234;28;19916;-78
2021/05/05 08:57:46;;;;;;;;;;;;;;;-142.75;56.21;76956.13;5061670;28;19928;-76
2021/05/05 09:00:22;;;;;;;;;;;;;;;-142.75;55.79;76843.91;5081944;28;19916;-76
2021/05/05 09:02:47;;;;;;;;;;;;;;;-142.75;53.22;76674.63;5079251;28;19946;-78
2021/05/05 09:05:13;;;;;;;;;;;;;;;-142.75;51.31;76572.25;5064478;28;19920;-78
2021/05/05 09:07:40;;;;;;;;;;;;;;;-142.75;49.54;76507.31;5080748;28;19920;-78
2021/05/05 09:10:05;;;;;;;;;;;;;;;-142.75;49.85;76564.38;5070019;28;20282;-76
2021/05/05 09:12:34;;;;;;;;;;;;;;;-142.75;49.67;76558.47;5084084;28;19930;-77
2021/05/05 09:14:59;;;;;;;;;;;;;;;-142.75;47.46;76566.34;5083983;28;20038;-78
2021/05/05 09:17:28;;;;;;;;;;;;;;;-142.75;48.53;76578.16;5080080;28;20007;-78
2021/05/05 09:20:13;;;;;;;;;;;;;;;-142.75;47.81;76562.41;5086423;28;20377;-77
2021/05/05 09:22:39;;;;;;;;;;;;;;;-142.75;48.94;76631.31;5065790;28;19948;-77
2021/05/05 09:25:06;;;;;;;;;;;;;;;-142.75;49.89;76550.59;5059981;28;19959;-76
2021/05/05 09:27:33;;;;;;;;;;;;;;;-142.75;47.08;76460.06;5082142;28;19927;-77
2021/05/05 09:30:00;;;;;;;;;;;;;;;-142.75;45.62;76558.47;5084163;28;19915;-77
2021/05/05 09:32:28;;;;;;;;;;;;;;;-142.75;47.90;76556.50;5064673;28;19920;-78
2021/05/05 09:34:55;;;;;;;;;;;;;;;-142.75;46.57;76525.03;5081062;28;20290;-78
2021/05/05 09:37:22;;;;;;;;;;;;;;;-142.75;47.71;76515.19;5064709;28;19931;-79
2021/05/05 09:39:55;;;;;;;;;;;;;;;-142.75;46.97;76467.94;5083023;28;19981;-77
2021/05/05 09:42:20;;;;;;;;;;;;;;;-142.75;46.44;76469.91;5061871;28;20006;-77
2021/05/05 09:45:12;;;;;;;;;;;;;;;-142.75;46.55;76467.94;5081437;28;20018;-77
2021/05/05 09:47:49;;;;;;;;;;;;;;;-142.75;47.64;76566.34;5075158;28;19920;-77
2021/05/05 09:50:28;;;;;;;;;;;;;;;-142.75;45.82;76462.03;5081598;28;20015;-78
2021/05/05 09:53:12;;;;;;;;;;;;;;;-142.75;44.94;76428.56;5065090;28;19955;-76
2021/05/05 09:55:37;;;;;;;;;;;;;;;-142.75;44.46;76471.88;5061771;28;19978;-78
2021/05/05 09:58:22;;;;;;;;;;;;;;;-142.75;44.89;76483.69;5064222;28;19924;-78
2021/05/05 10:01:08;;;;;;;;;;;;;;;-142.75;45.50;76672.66;5061101;28;19916;-77
2021/05/05 10:03:36;;;;;;;;;;;;;;;-142.75;47.04;76625.41;5078357;28;20294;-75
2021/05/05 10:06:19;;;;;;;;;;;;;;;-142.75;46.19;76554.53;5079874;28;19920;-75
2021/05/05 10:08:44;;;;;;;;;;;;;;;-142.75;45.90;76597.84;5062141;28;19927;-76
2021/05/05 10:11:10;;;;;;;;;;;;;;;-142.75;45.01;76530.91;5082602;28;19916;-75
2021/05/05 10:13:35;;;;;;;;;;;;;;;-142.75;44.91;76621.47;5056344;28;19924;-77
2021/05/05 10:16:01;;;;;;;;;;;;;;;-142.75;44.87;76625.41;5064411;28;19951;-75
2021/05/05 10:18:27;;;;;;;;;;;;;;;-142.75;46.10;76672.66;5062557;28;19927;-77
2021/05/05 10:20:53;;;;;;;;;;;;;;;-142.75;46.00;76686.44;5057538;28;19916;-77
2021/05/05 10:23:18;;;;;;;;;;;;;;;-142.75;46.75;76794.69;5088894;28;20584;-77
2021/05/05 10:25:46;;;;;;;;;;;;;;;-142.75;46.91;76818.31;5063636;28;19921;-76
2021/05/05 10:28:11;;;;;;;;;;;;;;;-142.75;47.94;76808.50;5069276;28;19919;-76
2021/05/05 10:30:40;;;;;;;;;;;;;;;-142.75;47.34;76712.03;5073208;28;19923;-77
2021/05/05 10:33:07;;;;;;;;;;;;;;;-142.75;47.14;76792.75;5087647;28;20408;-78
2021/05/05 10:35:32;;;;;;;;;;;;;;;-142.75;46.98;76731.72;5062475;28;20283;-77
2021/05/05 10:38:00;;;;;;;;;;;;;;;-142.75;46.07;76670.69;5066391;28;19942;-78
2021/05/05 10:40:26;;;;;;;;;;;;;;;-142.75;48.30;76810.44;5085249;28;19920;-78
2021/05/05 10:43:12;;;;;;;;;;;;;;;-142.75;49.42;76977.78;5052823;28;20245;-77
2021/05/05 10:45:39;;;;;;;;;;;;;;;-142.75;51.15;77052.59;5087743;28;19920;-78
2021/05/05 10:48:10;;;;;;;;;;;;;;;-142.75;53.71;77129.38;5086583;28;20424;-79
2021/05/05 10:50:47;;;;;;;;;;;;;;;-142.75;53.33;77182.53;5069050;28;19926;-77
2021/05/05 10:53:13;;;;;;;;;;;;;;;-142.75;53.74;77182.53;5090996;28;19977;-76
2021/05/05 10:55:39;;;;;;;;;;;;;;;-142.75;53.93;77066.38;5089375;28;19920;-77
2021/05/05 10:58:05;;;;;;;;;;;;;;;-142.75;51.87;76875.41;5067693;28;19943;-77
2021/05/05 11:00:52;;;;;;;;;;;;;;;-142.75;50.14;76775.03;5090935;28;19916;-78
2021/05/05 11:03:37;;;;;;;;;;;;;;;-142.75;48.41;76607.69;5072111;28;19923;-78
2021/05/05 11:06:23;;;;;;;;;;;;;;;-142.75;47.57;76588.00;5087722;28;20014;-80
2021/05/05 11:08:48;;;;;;;;;;;;;;;-142.75;48.48;76562.41;5085728;28;19916;-80
2021/05/05 11:11:32;;;;;;;;;;;;;;;-142.75;47.27;76668.72;5067488;28;19916;-78
2021/05/05 11:13:58;;;;;;;;;;;;;;;-142.75;47.68;76818.31;5084379;28;19965;-79
2021/05/05 11:16:23;;;;;;;;;;;;;;;-142.75;49.40;76847.84;5089655;28;19920;-78
2021/05/05 11:18:48;;;;;;;;;;;;;;;-142.75;48.37;76822.25;5088183;28;20015;-77
2021/05/05 11:21:25;;;;;;;;;;;;;;;-142.75;48.37;76658.88;5086023;28;19963;-79
2021/05/05 11:23:51;;;;;;;;;;;;;;;-142.75;47.81;76688.41;5086249;28;19961;-79
2021/05/05 11:26:27;;;;;;;;;;;;;;;-142.75;47.53;76812.41;5088274;28;19950;-78
2021/05/05 11:28:57;;;;;;;;;;;;;;;-142.75;47.37;76889.19;5069127;28;19920;-80
2021/05/05 11:31:41;;;;;;;;;;;;;;;-142.75;48.31;76887.22;5072573;28;19999;-79
2021/05/05 11:34:09;;;;;;;;;;;;;;;-142.75;47.72;76928.56;5087487;28;19916;-77
2021/05/05 11:36:35;;;;;;;;;;;;;;;-142.75;48.88;76899.03;5067041;28;19924;-76
2021/05/05 11:39:00;;;;;;;;;;;;;;;-142.75;47.99;76861.63;5082189;28;19920;-79
2021/05/05 11:41:27;;;;;;;;;;;;;;;-142.75;46.48;76914.78;5071162;28;20512;-78
2021/05/05 11:43:52;;;;;;;;;;;;;;;-142.75;47.77;76901.00;5067009;28;20325;-78
2021/05/05 11:46:20;;;;;;;;;;;;;;;-142.75;47.74;76950.22;5069683;28;19928;-78
2021/05/05 11:48:45;;;;;;;;;;;;;;;-142.75;47.48;76956.13;5068055;28;19983;-80
2021/05/05 11:51:25;;;;;;;;;;;;;;;-142.75;47.42;76922.66;5065247;28;19999;-79
2021/05/05 11:53:50;;;;;;;;;;;;;;;-142.75;46.80;76924.63;5066203;28;19916;-77
2021/05/05 11:56:25;;;;;;;;;;;;;;;-142.75;47.49;76838.00;5066743;28;19916;-78
2021/05/05 11:59:01;;;;;;;;;;;;;;;-142.75;46.50;76849.81;5088282;28;19935;-78
2021/05/05 12:01:26;;;;;;;;;;;;;;;-142.75;47.25;76932.50;5082352;28;20278;-79
2021/05/05 12:03:51;;;;;;;;;;;;;;;-142.75;47.07;76924.63;5086489;28;19956;-79
2021/05/05 12:06:17;;;;;;;;;;;;;;;-142.75;47.71;76981.72;5090223;28;19943;-79
2021/05/05 12:08:45;;;;;;;;;;;;;;;-142.75;48.14;76987.63;5067171;28;20006;-78
2021/05/05 12:11:11;;;;;;;;;;;;;;;-142.75;46.99;77017.16;5085117;28;19920;-78
2021/05/05 12:13:37;;;;;;;;;;;;;;;-142.75;47.71;77044.72;5080518;28;20294;-80
2021/05/05 12:16:09;;;;;;;;;;;;;;;-142.75;48.02;77074.25;5081547;28;19993;-77
2021/05/05 12:18:36;;;;;;;;;;;;;;;-142.75;48.29;77030.94;5083590;28;20388;-78
2021/05/05 12:21:01;;;;;;;;;;;;;;;-142.75;47.39;76999.44;5068239;28;19920;-77
2021/05/05 12:23:33;;;;;;;;;;;;;;;-142.75;46.98;76971.88;5068752;28;19973;-77
2021/05/05 12:25:58;;;;;;;;;;;;;;;-142.75;47.62;76962.03;5083113;28;19970;-78
2021/05/05 12:28:24;;;;;;;;;;;;;;;-142.75;48.27;77011.25;5064407;28;19921;-78
2021/05/05 12:30:50;;;;;;;;;;;;;;;-142.75;47.90;77025.03;5084658;28;19964;-77